Time;durP1;ratioP1;P1;durP2;ratioP2;P2;SDS_P1;SDS_P2;PMS_P1;PMS_P2;Temp;Humidity;BMP_temperature;BMP_pressure;BME280_temperature;BME280_humidity;BME280_pressure;Samples;Min_cycle;Max_cycle;Signal;HPM_P1;HPM_P2
2021/12/09 00:00:26;;;;;;;23.00;14.35;;;;;;;-139.48;100.00;61774.03;5017611;28;20102;-67
2021/12/09 00:03:11;;;;;;;36.50;16.30;;;;;;;-139.48;100.00;61774.03;5032365;28;20556;-67
2021/12/09 00:05:57;;;;;;;28.92;17.27;;;;;;;-139.48;100.00;61774.03;5017670;28;20040;-68
2021/12/09 00:08:41;;;;;;;35.33;18.13;;;;;;;-139.48;100.00;61774.03;5032585;28;20478;-67
2021/12/09 00:11:28;;;;;;;25.13;13.82;;;;;;;-139.48;100.00;61774.03;5032538;28;20052;-67
2021/12/09 00:14:16;;;;;;;27.60;15.50;;;;;;;-139.48;100.00;61774.03;5017521;28;20114;-66
2021/12/09 00:17:05;;;;;;;26.73;16.40;;;;;;;-139.48;100.00;61774.03;5032162;28;20411;-66
2021/12/09 00:19:49;;;;;;;30.17;18.45;;;;;;;-139.48;100.00;61774.03;5032168;28;20521;-66
2021/12/09 00:22:33;;;;;;;26.33;15.90;;;;;;;-139.48;100.00;61774.03;5032521;28;20133;-67
2021/12/09 00:25:17;;;;;;;41.78;21.55;;;;;;;-139.48;100.00;61774.03;5017704;28;20067;-66
2021/12/09 00:28:00;;;;;;;38.08;20.20;;;;;;;-139.48;100.00;61774.03;5017315;28;20513;-65
2021/12/09 00:30:44;;;;;;;;;;;;;;;-139.48;100.00;61774.03;5019772;28;20048;-66
2021/12/09 00:33:28;;;;;;;28.77;16.88;;;;;;;-139.48;100.00;61774.03;5036359;28;19935;-66
2021/12/09 00:36:16;;;;;;;32.13;16.58;;;;;;;-139.48;100.00;61774.03;5036182;28;20044;-68
2021/12/09 00:39:02;;;;;;;33.60;18.20;;;;;;;-139.48;100.00;61774.03;5021596;28;20099;-67
2021/12/09 00:41:46;;;;;;;40.05;18.45;;;;;;;-139.48;100.00;61774.03;5036068;28;20119;-67
2021/12/09 00:44:30;;;;;;;;;;;;;;;-139.48;100.00;61774.03;5021329;28;20136;-67
2021/12/09 00:47:14;;;;;;;29.10;16.10;;;;;;;-139.48;100.00;61774.03;5021023;28;19971;-67
2021/12/09 00:49:58;;;;;;;;;;;;;;;-139.48;100.00;61774.03;5021355;28;20333;-67
2021/12/09 00:52:42;;;;;;;29.00;16.73;;;;;;;-139.48;100.00;61774.03;5006793;28;20066;-66
2021/12/09 00:55:27;;;;;;;28.83;15.35;;;;;;;-139.48;100.00;61774.03;5006779;28;20467;-66
2021/12/09 00:58:11;;;;;;;29.77;16.90;;;;;;;-139.48;100.00;61774.03;5020927;28;20474;-67
2021/12/09 01:00:56;;;;;;;24.42;14.90;;;;;;;-139.48;100.00;61774.03;5035786;28;20390;-67
2021/12/09 01:03:41;;;;;;;26.95;15.95;;;;;;;-139.48;100.00;61774.03;5020439;28;20052;-66
2021/12/09 01:06:25;;;;;;;25.65;15.82;;;;;;;-139.48;100.00;61774.03;5020625;28;20128;-67
2021/12/09 01:09:09;;;;;;;;;;;;;;;-139.48;100.00;61774.03;5021009;28;20147;-67
2021/12/09 01:11:53;;;;;;;29.05;17.40;;;;;;;-139.48;100.00;61774.03;5006734;28;19936;-67
2021/12/09 01:14:37;;;;;;;28.83;16.95;;;;;;;-139.48;100.00;61774.03;5020277;28;20106;-66
2021/12/09 01:17:21;;;;;;;29.50;17.27;;;;;;;-139.48;100.00;61774.03;5035314;28;20049;-67
2021/12/09 01:20:06;;;;;;;;;;;;;;;-139.48;100.00;61774.03;5035813;28;20525;-67
2021/12/09 01:22:55;;;;;;;28.73;16.42;;;;;;;-139.48;100.00;61774.03;5035161;28;20021;-66
2021/12/09 01:25:39;;;;;;;24.45;14.43;;;;;;;-139.48;100.00;61774.03;5020457;28;20052;-67
2021/12/09 01:28:26;;;;;;;26.90;15.55;;;;;;;-139.48;100.00;61774.03;5020228;28;20047;-67
2021/12/09 01:31:10;;;;;;;28.13;16.00;;;;;;;-139.48;100.00;61774.03;5034962;28;20087;-67
2021/12/09 01:34:00;;;;;;;33.28;17.67;;;;;;;-139.48;100.00;61774.03;5034922;28;20430;-67
2021/12/09 01:36:44;;;;;;;26.27;16.20;;;;;;;-139.48;100.00;61774.03;5020789;28;20088;-67
2021/12/09 01:39:29;;;;;;;30.73;16.92;;;;;;;-139.48;100.00;61774.03;5019970;28;20044;-67
2021/12/09 01:42:13;;;;;;;29.60;15.93;;;;;;;-139.48;100.00;61774.03;5033893;28;20048;-66
2021/12/09 01:44:57;;;;;;;28.85;15.57;;;;;;;-139.48;100.00;61774.03;5019591;28;20521;-66
2021/12/09 01:47:41;;;;;;;27.40;16.55;;;;;;;-139.48;100.00;61774.03;5019898;28;20482;-67
2021/12/09 01:50:25;;;;;;;32.33;16.40;;;;;;;-139.48;100.00;61774.03;5019658;28;20087;-68
2021/12/09 01:53:10;;;;;;;25.70;13.32;;;;;;;-139.48;100.00;61774.03;5019805;28;20044;-66
2021/12/09 01:55:57;;;;;;;27.88;15.10;;;;;;;-139.48;100.00;61774.03;5034496;28;20111;-68
2021/12/09 01:58:41;;;;;;;27.33;15.48;;;;;;;-139.48;100.00;61774.03;5019435;28;20095;-66
2021/12/09 02:01:25;;;;;;;26.52;14.85;;;;;;;-139.48;100.00;61774.03;5005545;28;20052;-67
2021/12/09 02:04:11;;;;;;;27.35;15.38;;;;;;;-139.48;100.00;61774.03;5019287;28;20115;-66
2021/12/09 02:06:55;;;;;;;30.85;17.05;;;;;;;-139.48;100.00;61774.03;5019453;28;20059;-66
2021/12/09 02:09:39;;;;;;;26.70;15.70;;;;;;;-139.48;100.00;61774.03;5019517;28;20410;-66
2021/12/09 02:12:23;;;;;;;25.63;15.40;;;;;;;-139.48;100.00;61774.03;5034504;28;20043;-66
2021/12/09 02:15:07;;;;;;;;;;;;;;;-139.48;100.00;61774.03;5041107;22;20104;-68
2021/12/09 02:17:52;;;;;;;25.95;14.65;;;;;;;-139.48;100.00;61774.03;5019483;28;19923;-68
2021/12/09 02:20:37;;;;;;;26.05;15.27;;;;;;;-139.48;100.00;61774.03;5005507;28;20391;-68
2021/12/09 02:23:22;;;;;;;23.40;14.45;;;;;;;-139.48;100.00;61774.03;5005272;28;20052;-68
2021/12/09 02:26:05;;;;;;;;;;;;;;;-139.48;100.00;61774.03;5019362;28;20461;-68
2021/12/09 02:28:51;;;;;;;15.23;9.60;;;;;;;-139.48;100.00;61774.03;5005274;28;19920;-68
2021/12/09 02:31:36;;;;;;;23.90;14.02;;;;;;;-139.48;100.00;61774.03;5019039;28;20572;-68
2021/12/09 02:34:20;;;;;;;30.13;15.23;;;;;;;-139.48;100.00;61774.03;5018786;28;20048;-68
2021/12/09 02:37:04;;;;;;;25.08;13.85;;;;;;;-139.48;100.00;61774.03;5033609;28;20409;-68
2021/12/09 02:39:48;;;;;;;28.95;14.82;;;;;;;-139.48;100.00;61774.03;5019002;28;20067;-68
2021/12/09 02:42:34;;;;;;;;;;;;;;;-139.48;100.00;61774.03;5034329;28;20056;-68
2021/12/09 02:45:17;;;;;;;21.20;13.23;;;;;;;-139.48;100.00;61774.03;5018834;28;20008;-68
2021/12/09 02:48:01;;;;;;;;;;;;;;;-139.48;100.00;61774.03;5005267;28;20049;-68
2021/12/09 02:50:46;;;;;;;27.15;14.23;;;;;;;-139.48;100.00;61774.03;5018748;28;20020;-68
2021/12/09 02:53:30;;;;;;;28.42;15.85;;;;;;;-139.48;100.00;61774.03;5004850;28;20127;-68
2021/12/09 02:56:14;;;;;;;27.15;14.52;;;;;;;-139.48;100.00;61774.03;5018290;28;20048;-68
2021/12/09 02:58:58;;;;;;;25.00;14.63;;;;;;;-139.48;100.00;61774.03;5018626;28;20044;-68
2021/12/09 03:02:04;;;;;;;26.70;13.68;;;;;;;-139.48;100.00;61774.03;5033242;28;20048;-68
2021/12/09 03:04:52;;;;;;;30.80;15.95;;;;;;;-139.48;100.00;61774.03;5021089;28;20128;-68
2021/12/09 03:07:40;;;;;;;27.40;15.27;;;;;;;-139.48;100.00;61774.03;5018396;28;20072;-68
2021/12/09 03:10:25;;;;;;;35.33;15.40;;;;;;;-139.48;100.00;61774.03;5018633;28;20204;-68
2021/12/09 03:13:11;;;;;;;31.10;16.02;;;;;;;-139.48;100.00;61774.03;5018244;28;20044;-70
2021/12/09 03:15:55;;;;;;;28.35;14.95;;;;;;;-139.48;100.00;61774.03;5033199;28;20501;-68
2021/12/09 03:18:39;;;;;;;;;;;;;;;-139.48;100.00;61774.03;5018663;28;20099;-68
2021/12/09 03:21:27;;;;;;;29.83;13.35;;;;;;;-139.48;100.00;61774.03;5004015;28;19971;-68
2021/12/09 03:24:18;;;;;;;25.88;13.98;;;;;;;-139.48;100.00;61774.03;5017845;28;20053;-67
2021/12/09 03:27:02;;;;;;;26.08;12.88;;;;;;;-139.48;100.00;61774.03;5018349;28;20043;-68
2021/12/09 03:29:46;;;;;;;24.85;12.63;;;;;;;-139.48;100.00;61774.03;5017845;28;20052;-68
2021/12/09 03:32:30;;;;;;;23.73;12.45;;;;;;;-139.48;100.00;61774.03;5032840;28;20048;-68
2021/12/09 03:35:14;;;;;;;27.00;12.20;;;;;;;-139.48;100.00;61774.03;5004200;28;20048;-68
2021/12/09 03:37:59;;;;;;;22.80;12.98;;;;;;;-139.48;100.00;61774.03;5018242;28;20047;-68
2021/12/09 03:40:43;;;;;;;25.60;11.57;;;;;;;-139.48;100.00;61774.03;5017982;28;20117;-68
2021/12/09 03:43:27;;;;;;;19.08;11.45;;;;;;;-139.48;100.00;61774.03;5003997;28;20052;-68
2021/12/09 03:46:11;;;;;;;;;;;;;;;-139.48;100.00;61774.03;5018310;28;20051;-68
2021/12/09 03:48:55;;;;;;;17.55;9.55;;;;;;;-139.48;100.00;61774.03;5033212;28;20223;-68
2021/12/09 03:51:39;;;;;;;23.42;12.00;;;;;;;-139.48;100.00;61774.03;5017538;28;20421;-68
2021/12/09 03:54:23;;;;;;;;;;;;;;;-139.48;100.00;61774.03;5018130;28;20052;-68
2021/12/09 03:57:09;;;;;;;21.90;11.20;;;;;;;-139.48;100.00;61774.03;5003854;28;19967;-68
2021/12/09 03:59:54;;;;;;;26.55;11.90;;;;;;;-139.48;100.00;61774.03;5032913;28;20127;-68
2021/12/09 04:02:38;;;;;;;22.55;11.38;;;;;;;-139.48;100.00;61774.03;5003589;28;20457;-68
2021/12/09 04:05:22;;;;;;;23.33;10.98;;;;;;;-139.48;100.00;61774.03;5018862;28;20570;-68
2021/12/09 04:08:07;;;;;;;22.05;11.60;;;;;;;-139.48;100.00;61774.03;5021720;28;20072;-68
2021/12/09 04:10:51;;;;;;;22.40;11.10;;;;;;;-139.48;100.00;61774.03;5007978;28;20052;-68
2021/12/09 04:13:35;;;;;;;19.35;10.65;;;;;;;-139.48;100.00;61774.03;5007451;28;20056;-68
2021/12/09 04:16:19;;;;;;;;;;;;;;;-139.48;100.00;61774.03;5021786;28;20104;-68
2021/12/09 04:19:05;;;;;;;22.47;10.33;;;;;;;-139.48;100.00;61774.03;5021623;28;19924;-68
2021/12/09 04:21:49;;;;;;;20.45;9.48;;;;;;;-139.48;100.00;61774.03;5021573;28;20316;-68
2021/12/09 04:24:33;;;;;;;;;;;;;;;-139.48;100.00;61774.03;5021651;28;20366;-68
2021/12/09 04:27:17;;;;;;;17.52;7.60;;;;;;;-139.48;100.00;61774.03;5021568;28;19970;-70
2021/12/09 04:30:01;;;;;;;19.77;9.65;;;;;;;-139.48;100.00;61774.03;5021160;28;20072;-68
2021/12/09 04:32:46;;;;;;;20.63;9.68;;;;;;;-139.48;100.00;61774.03;5021327;28;20053;-68
2021/12/09 04:35:30;;;;;;;26.20;11.27;;;;;;;-139.48;100.00;61774.03;5007690;28;20098;-68
2021/12/09 04:38:14;;;;;;;;;;;;;;;-139.48;100.00;61774.03;5007792;28;20052;-68
2021/12/09 04:40:58;;;;;;;15.77;8.38;;;;;;;-139.48;100.00;61774.03;5007316;28;19920;-68
2021/12/09 04:43:43;;;;;;;19.75;9.48;;;;;;;-139.48;100.00;61774.03;5021269;28;20052;-70
2021/12/09 04:46:27;;;;;;;23.08;9.65;;;;;;;-139.48;100.00;61774.03;5007423;28;20044;-71
2021/12/09 04:49:11;;;;;;;21.58;9.93;;;;;;;-139.48;100.00;61774.03;5035871;28;20048;-68
2021/12/09 04:51:57;;;;;;;;;;;;;;;-139.48;100.00;61774.03;5021265;28;20555;-68
2021/12/09 04:54:41;;;;;;;17.15;9.07;;;;;;;-139.48;100.00;61774.03;5007475;28;19963;-68
2021/12/09 04:57:25;;;;;;;18.45;9.93;;;;;;;-139.48;100.00;61774.03;5007150;28;20092;-70
2021/12/09 05:00:16;;;;;;;18.45;8.73;;;;;;;-139.48;100.00;61774.03;5020703;28;20472;-68
2021/12/09 05:05:45;;;;;;;;;;;;;;;-139.48;100.00;61774.03;5021498;28;20179;-68
2021/12/09 05:08:32;;;;;;;16.58;8.85;;;;;;;-139.48;100.00;61774.03;5035551;28;19920;-68
2021/12/09 05:14:11;;;;;;;20.55;10.77;;;;;;;-139.48;100.00;61774.03;5021739;28;20076;-68
2021/12/09 05:16:55;;;;;;;16.33;8.82;;;;;;;-139.48;100.00;61774.03;5005192;28;20096;-68
2021/12/09 05:19:40;;;;;;;11.43;7.35;;;;;;;-139.48;100.00;61774.03;5035335;28;20047;-68
2021/12/09 05:22:23;;;;;;;13.82;8.25;;;;;;;-139.48;100.00;61774.03;5035509;28;20052;-68
2021/12/09 05:25:07;;;;;;;;;;;;;;;-139.48;100.00;61774.03;5020684;28;20052;-68
2021/12/09 05:27:53;;;;;;;18.73;8.82;;;;;;;-139.48;100.00;61774.03;5020374;28;20050;-68
2021/12/09 05:32:07;;;;;;;23.45;9.07;;;;;;;-139.48;100.00;61774.03;5020513;28;20103;-68
2021/12/09 05:33:42;;;;;;;16.75;9.68;;;;;;;-139.48;100.00;61774.03;5023057;28;20056;-68
2021/12/09 05:36:26;;;;;;;17.00;9.75;;;;;;;-139.48;100.00;61774.03;5034968;28;20056;-68
2021/12/09 05:39:11;;;;;;;;;;;;;;;-139.48;100.00;61774.03;5007021;28;20045;-68
2021/12/09 05:41:54;;;;;;;19.02;9.05;;;;;;;-139.48;100.00;61774.03;5019984;28;19924;-68
2021/12/09 05:44:40;;;;;;;17.10;9.07;;;;;;;-139.48;100.00;61774.03;5034761;28;20128;-68
2021/12/09 05:47:25;;;;;;;16.98;8.98;;;;;;;-139.48;100.00;61774.03;5019890;28;20044;-68
2021/12/09 05:50:11;;;;;;;21.55;9.85;;;;;;;-139.48;100.00;61774.03;5006093;28;20044;-70
2021/12/09 05:52:54;;;;;;;18.77;9.93;;;;;;;-139.48;100.00;61774.03;5019987;28;20095;-68
2021/12/09 05:55:43;;;;;;;;;;;;;;;-139.48;100.00;61774.03;5020094;28;20541;-68
2021/12/09 05:58:27;;;;;;;20.08;10.07;;;;;;;-139.48;100.00;61774.03;5020408;28;20286;-68
2021/12/09 06:01:11;;;;;;;19.85;9.75;;;;;;;-139.48;100.00;61774.03;5034635;28;20056;-68
2021/12/09 06:03:55;;;;;;;18.65;9.80;;;;;;;-139.48;100.00;61774.03;5019330;28;20128;-68
2021/12/09 06:06:40;;;;;;;20.80;10.18;;;;;;;-139.48;100.00;61774.03;5019456;28;20117;-68
2021/12/09 06:09:24;;;;;;;20.10;10.38;;;;;;;-139.48;100.00;61774.03;5019461;28;20125;-68
2021/12/09 06:12:09;;;;;;;15.43;9.38;;;;;;;-139.48;100.00;61774.03;5034302;28;20095;-68
2021/12/09 06:14:53;;;;;;;18.13;9.68;;;;;;;-139.48;100.00;61774.03;5019097;28;20131;-68
2021/12/09 06:17:36;;;;;;;;;;;;;;;-139.48;100.00;61774.03;5019609;28;20092;-68
2021/12/09 06:20:20;;;;;;;18.30;10.10;;;;;;;-139.48;100.00;61774.03;5019422;28;20369;-68
2021/12/09 06:23:04;;;;;;;;;;;;;;;-139.48;100.00;61774.03;5035232;28;20111;-68
2021/12/09 06:25:50;;;;;;;24.67;9.80;;;;;;;-139.48;100.00;61774.03;5034178;28;19963;-68
2021/12/09 06:28:34;;;;;;;20.88;9.65;;;;;;;-139.48;100.00;61774.03;5005175;28;20048;-68
2021/12/09 06:31:19;;;;;;;17.13;8.35;;;;;;;-139.48;100.00;61774.03;5005219;28;20168;-68
2021/12/09 06:34:04;;;;;;;17.73;9.80;;;;;;;-139.48;100.00;61774.03;5019296;28;20106;-69
2021/12/09 06:36:48;;;;;;;17.20;9.38;;;;;;;-139.48;100.00;61774.03;5004901;28;20119;-68
2021/12/09 06:39:32;;;;;;;24.02;9.65;;;;;;;-139.48;100.00;61774.03;5018966;28;20052;-68
2021/12/09 06:42:17;;;;;;;16.48;9.20;;;;;;;-139.48;100.00;61774.03;5005109;28;20438;-70
2021/12/09 06:45:02;;;;;;;18.85;9.82;;;;;;;-139.48;100.00;61774.03;5033916;28;20051;-68
2021/12/09 06:47:47;;;;;;;20.92;11.77;;;;;;;-139.48;100.00;61774.03;5018761;28;20048;-68
2021/12/09 06:50:32;;;;;;;16.48;10.68;;;;;;;-139.48;100.00;61774.03;5018795;28;20044;-68
2021/12/09 06:53:16;;;;;;;;;;;;;;;-139.48;100.00;61774.03;5018949;28;20465;-68
2021/12/09 06:56:00;;;;;;;18.90;11.13;;;;;;;-139.48;100.00;61774.03;5018614;28;20373;-68
2021/12/09 06:58:44;;;;;;;;;;;;;;;-139.48;100.00;61774.03;5019089;28;20091;-68
2021/12/09 07:01:28;;;;;;;19.73;10.40;;;;;;;-139.48;100.00;61774.03;5018409;28;19938;-70
2021/12/09 07:04:12;;;;;;;;;;;;;;;-139.48;100.00;61774.03;5033711;28;20052;-71
2021/12/09 07:06:56;;;;;;;23.15;11.75;;;;;;;-139.48;100.00;61774.03;5004971;28;19975;-74
2021/12/09 07:09:40;;;;;;;18.63;11.15;;;;;;;-139.48;100.00;61774.03;5018157;28;20048;-72
2021/12/09 07:12:24;;;;;;;23.98;12.15;;;;;;;-139.48;100.00;61774.03;5018634;28;20099;-70
2021/12/09 07:15:12;;;;;;;25.55;12.30;;;;;;;-139.48;100.00;61774.03;5033561;28;20087;-73
2021/12/09 07:17:56;;;;;;;24.17;12.20;;;;;;;-139.48;100.00;61774.03;5004955;28;20056;-74
2021/12/09 07:20:39;;;;;;;;;;;;;;;-139.48;100.00;61774.03;5019547;28;20406;-71
2021/12/09 07:23:23;;;;;;;23.47;11.03;;;;;;;-139.48;100.00;61774.03;5033931;28;19920;-71
2021/12/09 07:26:07;;;;;;;;;;;;;;;-139.48;100.00;61774.03;5019336;28;20048;-71
2021/12/09 07:28:51;;;;;;;24.70;11.93;;;;;;;-139.48;100.00;61774.03;5005359;28;19920;-72
2021/12/09 07:31:36;;;;;;;27.42;13.95;;;;;;;-139.48;100.00;61774.03;5018911;28;20386;-71
2021/12/09 07:34:21;;;;;;;26.00;12.45;;;;;;;-139.48;100.00;61774.03;5018705;28;20405;-70
2021/12/09 07:37:05;;;;;;;29.17;13.40;;;;;;;-139.48;100.00;61774.03;5018891;28;20053;-73
2021/12/09 07:39:49;;;;;;;24.85;13.77;;;;;;;-139.48;100.00;61774.03;5018084;28;20525;-68
2021/12/09 07:42:33;;;;;;;;;;;;;;;-139.48;100.00;61774.03;5019238;28;20084;-71
2021/12/09 07:45:17;;;;;;;26.88;13.48;;;;;;;-139.48;100.00;61774.03;5004741;28;19919;-71
2021/12/09 07:48:01;;;;;;;30.20;14.77;;;;;;;-139.48;100.00;61774.03;5004504;28;20051;-70
2021/12/09 07:50:45;;;;;;;36.08;15.00;;;;;;;-139.48;100.00;61774.03;5004431;28;20091;-71
2021/12/09 07:53:29;;;;;;;;;;;;;;;-139.48;100.00;61774.03;5019200;28;20048;-74
